Time;durP1;ratioP1;P1;durP2;ratioP2;P2;SDS_P1;SDS_P2;PMS_P1;PMS_P2;Temp;Humidity;BMP_temperature;BMP_pressure;BME280_temperature;BME280_humidity;BME280_pressure;Samples;Min_cycle;Max_cycle;Signal;HPM_P1;HPM_P2
2023/07/08 00:00:42;;;;;;;;;;;18.30;99.90;;;;;;5136119;27;19963;-72
2023/07/08 00:03:08;;;;;;;;;;;18.30;99.90;;;;;;5135785;27;19964;-71
2023/07/08 00:05:33;;;;;;;;;;;18.30;99.90;;;;;;5117044;27;19960;-72
2023/07/08 00:07:59;;;;;;;;;;;18.20;99.90;;;;;;5135651;27;19915;-71
2023/07/08 00:10:26;;;;;;;;;;;18.20;99.90;;;;;;5136068;27;19973;-71
2023/07/08 00:12:52;;;;;;;;;;;18.10;99.90;;;;;;5135904;27;19937;-72
2023/07/08 00:15:20;;;;;;;;;;;18.00;99.90;;;;;;5135884;27;19915;-72
2023/07/08 00:17:45;;;;;;;;;;;18.00;99.90;;;;;;5135790;27;19919;-71
2023/07/08 00:20:19;;;;;;;;;;;18.00;99.90;;;;;;5136093;27;19915;-71
2023/07/08 00:22:46;;;;;;;;;;;17.90;99.90;;;;;;5135786;27;19919;-71
2023/07/08 00:25:14;;;;;;;;;;;17.90;99.90;;;;;;5135977;27;20010;-72
2023/07/08 00:27:39;;;;;;;;;;;17.90;99.90;;;;;;5135768;27;20384;-71
2023/07/08 00:30:17;;;;;;;;;;;17.90;99.90;;;;;;5135657;27;19919;-71
2023/07/08 00:32:42;;;;;;;;;;;17.90;99.90;;;;;;5135993;27;19915;-72
2023/07/08 00:35:08;;;;;;;;;;;17.90;99.90;;;;;;5135144;27;20311;-73
2023/07/08 00:37:33;;;;;;;;;;;17.80;99.90;;;;;;5135541;27;19915;-72
2023/07/08 00:39:59;;;;;;;;;;;17.80;99.90;;;;;;5135212;27;19919;-72
2023/07/08 00:42:24;;;;;;;;;;;17.80;99.90;;;;;;5135645;27;19926;-71
2023/07/08 00:44:50;;;;;;;;;;;17.80;99.90;;;;;;5135457;27;20359;-72
2023/07/08 00:47:16;;;;;;;;;;;17.70;99.90;;;;;;5135434;27;20369;-71
2023/07/08 00:49:59;;;;;;;;;;;17.80;99.90;;;;;;5135125;27;19921;-71
2023/07/08 00:52:28;;;;;;;;;;;17.80;99.90;;;;;;5135740;27;19922;-72
2023/07/08 00:54:55;;;;;;;;;;;17.70;99.90;;;;;;5135314;27;19965;-72
2023/07/08 00:57:22;;;;;;;;;;;17.70;99.90;;;;;;5135310;27;19919;-72
2023/07/08 00:59:59;;;;;;;;;;;17.60;99.90;;;;;;5135246;27;19929;-72
2023/07/08 01:02:26;;;;;;;;;;;17.60;99.90;;;;;;5135073;27;19919;-73
2023/07/08 01:04:55;;;;;;;;;;;17.60;99.90;;;;;;5134835;27;19944;-73
2023/07/08 01:07:22;;;;;;;;;;;17.30;99.90;;;;;;5135166;28;19915;-72
2023/07/08 01:09:49;;;;;;;;;;;17.50;99.90;;;;;;5135137;28;19922;-71
2023/07/08 01:12:17;;;;;;;;;;;17.50;99.90;;;;;;5135274;28;19915;-71
2023/07/08 01:14:43;;;;;;;;;;;17.50;99.90;;;;;;5135169;28;19919;-71
2023/07/08 01:17:13;;;;;;;;;;;17.40;99.90;;;;;;5135071;28;20274;-72
2023/07/08 01:19:42;;;;;;;;;;;17.40;99.90;;;;;;5135249;28;20266;-72
2023/07/08 01:22:08;;;;;;;;;;;17.40;99.90;;;;;;5135056;28;19915;-72
2023/07/08 01:24:38;;;;;;;;;;;17.50;99.90;;;;;;5134976;28;19976;-72
2023/07/08 01:27:05;;;;;;;;;;;17.40;99.90;;;;;;5135188;28;19922;-71
2023/07/08 01:29:31;;;;;;;;;;;17.40;99.90;;;;;;5134989;28;19916;-71
2023/07/08 01:31:57;;;;;;;;;;;17.40;99.90;;;;;;5134853;28;19915;-71
2023/07/08 01:34:23;;;;;;;;;;;17.30;99.90;;;;;;5134689;28;20266;-72
2023/07/08 01:36:51;;;;;;;;;;;17.30;99.90;;;;;;5134965;28;19937;-70
2023/07/08 01:39:19;;;;;;;;;;;17.30;99.90;;;;;;5134820;28;19920;-72
2023/07/08 01:41:45;;;;;;;;;;;17.20;99.90;;;;;;5134834;28;19919;-71
2023/07/08 01:44:29;;;;;;;;;;;17.20;99.90;;;;;;5134838;28;20370;-72
2023/07/08 01:46:57;;;;;;;;;;;17.20;99.90;;;;;;5134841;28;19967;-72
2023/07/08 01:49:22;;;;;;;;;;;17.20;99.90;;;;;;5134724;28;19922;-72
2023/07/08 01:51:48;;;;;;;;;;;17.20;99.90;;;;;;5134683;28;19915;-72
2023/07/08 01:54:14;;;;;;;;;;;17.20;99.90;;;;;;5135429;28;19921;-72
2023/07/08 01:56:39;;;;;;;;;;;17.10;99.90;;;;;;5134666;28;19919;-71
2023/07/08 01:59:05;;;;;;;;;;;17.10;99.90;;;;;;5134698;28;19919;-72
2023/07/08 02:01:30;;;;;;;;;;;17.10;99.90;;;;;;5134687;28;20010;-72
2023/07/08 02:03:56;;;;;;;;;;;17.10;99.90;;;;;;5134486;28;19983;-72
2023/07/08 02:06:21;;;;;;;;;;;17.00;99.90;;;;;;5134623;28;19915;-71
2023/07/08 02:08:47;;;;;;;;;;;17.00;99.90;;;;;;5134577;28;20286;-71
2023/07/08 02:11:12;;;;;;;;;;;17.00;99.90;;;;;;5134546;28;20347;-71
2023/07/08 02:13:38;;;;;;;;;;;17.00;99.90;;;;;;5136018;27;19915;-70
2023/07/08 02:16:06;;;;;;;;;;;17.00;99.90;;;;;;5138066;27;20460;-73
2023/07/08 02:18:32;;;;;;;;;;;17.00;99.90;;;;;;5138224;27;19915;-72
2023/07/08 02:20:57;;;;;;;;;;;17.00;99.90;;;;;;5138106;27;19922;-72
2023/07/08 02:23:24;;;;;;;;;;;16.90;99.90;;;;;;5138498;27;19915;-73
2023/07/08 02:25:52;;;;;;;;;;;17.00;99.90;;;;;;5138097;27;19922;-72
2023/07/08 02:28:18;;;;;;;;;;;16.90;99.90;;;;;;5138011;27;19915;-72
2023/07/08 02:30:45;;;;;;;;;;;16.90;99.90;;;;;;5137868;27;19922;-71
2023/07/08 02:33:11;;;;;;;;;;;16.90;99.90;;;;;;5137890;27;19922;-71
2023/07/08 02:35:36;;;;;;;;;;;16.80;99.90;;;;;;5137836;27;19915;-72
2023/07/08 02:38:03;;;;;;;;;;;16.80;99.90;;;;;;5137895;27;19923;-73
2023/07/08 02:40:28;;;;;;;;;;;16.70;99.90;;;;;;5137802;27;19921;-71
2023/07/08 02:42:54;;;;;;;;;;;16.70;99.90;;;;;;5137447;27;20010;-72
2023/07/08 02:45:20;;;;;;;;;;;16.70;99.90;;;;;;5138086;27;19919;-72
2023/07/08 02:47:46;;;;;;;;;;;16.70;99.90;;;;;;5137655;27;19915;-71
2023/07/08 02:50:12;;;;;;;;;;;16.60;99.90;;;;;;5137579;27;19915;-71
2023/07/08 02:52:38;;;;;;;;;;;16.60;99.90;;;;;;5119379;27;19960;-71
2023/07/08 02:55:03;;;;;;;;;;;16.60;99.90;;;;;;5137727;27;19919;-72
2023/07/08 02:57:29;;;;;;;;;;;16.60;99.90;;;;;;5137139;27;19915;-72
2023/07/08 02:59:55;;;;;;;;;;;16.60;99.90;;;;;;5137297;27;19919;-71
2023/07/08 03:02:23;;;;;;;;;;;16.60;99.90;;;;;;5137294;27;19915;-71
2023/07/08 03:04:49;;;;;;;;;;;16.60;99.90;;;;;;5137358;27;19916;-74
2023/07/08 03:07:15;;;;;;;;;;;16.60;99.90;;;;;;5137275;27;19972;-73
2023/07/08 03:09:41;;;;;;;;;;;16.60;99.90;;;;;;5137133;27;20010;-73
2023/07/08 03:12:07;;;;;;;;;;;16.60;99.90;;;;;;5137022;27;19915;-74
2023/07/08 03:14:33;;;;;;;;;;;16.50;99.90;;;;;;5136899;27;19922;-72
2023/07/08 03:16:58;;;;;;;;;;;16.50;99.90;;;;;;5137043;27;19915;-71
2023/07/08 03:19:25;;;;;;;;;;;16.50;99.90;;;;;;5136930;27;19965;-73
2023/07/08 03:21:50;;;;;;;;;;;16.50;99.90;;;;;;5137012;27;20438;-73
2023/07/08 03:24:18;;;;;;;;;;;16.40;99.90;;;;;;5136842;27;19966;-74
2023/07/08 03:26:44;;;;;;;;;;;16.40;99.90;;;;;;5136739;27;20240;-74
2023/07/08 03:29:16;;;;;;;;;;;16.40;99.90;;;;;;5136542;27;20271;-73
2023/07/08 03:31:42;;;;;;;;;;;16.40;99.90;;;;;;5136772;27;20323;-73
2023/07/08 03:34:09;;;;;;;;;;;16.40;99.90;;;;;;5136260;27;19963;-71
2023/07/08 03:36:36;;;;;;;;;;;16.40;99.90;;;;;;5136468;27;19961;-73
2023/07/08 03:39:01;;;;;;;;;;;16.40;99.90;;;;;;5136627;27;19966;-71
2023/07/08 03:41:27;;;;;;;;;;;16.40;99.90;;;;;;5136861;27;19962;-70
2023/07/08 03:43:52;;;;;;;;;;;16.40;99.90;;;;;;5136099;27;19915;-70
2023/07/08 03:46:19;;;;;;;;;;;16.40;99.90;;;;;;5136271;27;19960;-71
2023/07/08 03:48:46;;;;;;;;;;;16.40;99.90;;;;;;5136401;27;19919;-71
2023/07/08 03:51:38;;;;;;;;;;;16.40;99.90;;;;;;5136810;27;19922;-72
2023/07/08 03:54:04;;;;;;;;;;;16.40;99.90;;;;;;5132505;27;19915;-72
2023/07/08 03:56:30;;;;;;;;;;;16.40;99.90;;;;;;5136140;27;20007;-73
2023/07/08 03:58:55;;;;;;;;;;;16.40;99.90;;;;;;5136118;27;20012;-71
2023/07/08 04:01:23;;;;;;;;;;;16.40;99.90;;;;;;5136063;27;19915;-71
2023/07/08 04:03:50;;;;;;;;;;;16.40;99.90;;;;;;5136254;27;19915;-73
2023/07/08 04:06:15;;;;;;;;;;;16.50;99.90;;;;;;5135819;27;20374;-73
2023/07/08 04:08:41;;;;;;;;;;;16.50;99.90;;;;;;5135848;27;19970;-71
2023/07/08 04:11:06;;;;;;;;;;;16.50;99.90;;;;;;5135978;27;19960;-71
2023/07/08 04:13:32;;;;;;;;;;;16.50;99.90;;;;;;5135990;27;19915;-70
2023/07/08 04:16:01;;;;;;;;;;;16.40;99.90;;;;;;5135855;27;19915;-71
2023/07/08 04:18:27;;;;;;;;;;;16.40;99.90;;;;;;5136451;27;20268;-70
2023/07/08 04:20:53;;;;;;;;;;;16.40;99.90;;;;;;5136197;27;19915;-71
2023/07/08 04:23:19;;;;;;;;;;;16.50;99.90;;;;;;5135866;27;20013;-71
2023/07/08 04:25:45;;;;;;;;;;;16.50;99.90;;;;;;5135507;27;20338;-70
2023/07/08 04:28:11;;;;;;;;;;;16.50;99.90;;;;;;5135730;27;19977;-72
2023/07/08 04:30:40;;;;;;;;;;;16.50;99.90;;;;;;5135632;27;19958;-72
2023/07/08 04:33:13;;;;;;;;;;;16.50;99.90;;;;;;5151661;27;19915;-72
2023/07/08 04:35:40;;;;;;;;;;;16.50;99.90;;;;;;5134893;27;20359;-72
2023/07/08 04:38:09;;;;;;;;;;;16.50;99.90;;;;;;5135580;27;20028;-72
2023/07/08 04:40:39;;;;;;;;;;;16.60;99.90;;;;;;5135354;27;19927;-74
2023/07/08 04:43:10;;;;;;;;;;;16.60;99.90;;;;;;5135101;27;20389;-73
2023/07/08 04:45:42;;;;;;;;;;;16.60;99.90;;;;;;5135526;27;19915;-72
2023/07/08 04:48:12;;;;;;;;;;;16.60;99.90;;;;;;5135424;27;20014;-72
2023/07/08 04:50:41;;;;;;;;;;;16.70;99.90;;;;;;5135052;27;20370;-72
2023/07/08 04:53:07;;;;;;;;;;;16.70;99.90;;;;;;5135215;27;19923;-74
2023/07/08 04:55:33;;;;;;;;;;;16.70;99.90;;;;;;5135251;27;19915;-72
2023/07/08 04:57:59;;;;;;;;;;;16.80;99.90;;;;;;5135304;27;19916;-70
2023/07/08 05:00:24;;;;;;;;;;;16.80;99.90;;;;;;5135590;27;20378;-73
2023/07/08 05:02:50;;;;;;;;;;;16.80;99.90;;;;;;5135028;27;19919;-73
2023/07/08 05:05:15;;;;;;;;;;;16.90;99.90;;;;;;5135276;27;19925;-74
2023/07/08 05:07:41;;;;;;;;;;;16.90;99.90;;;;;;5135188;27;19915;-71
2023/07/08 05:10:06;;;;;;;;;;;16.90;99.90;;;;;;5135140;28;19922;-73
2023/07/08 05:12:32;;;;;;;;;;;17.00;99.90;;;;;;5135545;28;20366;-72
2023/07/08 05:14:57;;;;;;;;;;;17.00;99.90;;;;;;5135094;28;19968;-73
2023/07/08 05:17:24;;;;;;;;;;;17.10;99.90;;;;;;5135244;28;19922;-74
2023/07/08 05:19:51;;;;;;;;;;;17.20;99.90;;;;;;5135016;28;20002;-73
2023/07/08 05:22:18;;;;;;;;;;;17.20;99.90;;;;;;5135011;28;19941;-73
2023/07/08 05:24:43;;;;;;;;;;;17.30;99.90;;;;;;5134578;28;20002;-75
2023/07/08 05:27:09;;;;;;;;;;;17.30;99.90;;;;;;5134994;28;20023;-75
2023/07/08 05:29:34;;;;;;;;;;;17.50;99.90;;;;;;5135259;28;19919;-74
2023/07/08 05:32:00;;;;;;;;;;;17.70;99.90;;;;;;5134939;28;19915;-73
2023/07/08 05:34:25;;;;;;;;;;;18.00;99.90;;;;;;5134742;28;19960;-73
2023/07/08 05:36:51;;;;;;;;;;;18.20;99.90;;;;;;5135138;28;19960;-70
2023/07/08 05:39:16;;;;;;;;;;;18.50;99.90;;;;;;5134686;28;19916;-73
2023/07/08 05:41:42;;;;;;;;;;;18.70;99.90;;;;;;5134791;28;20363;-74
2023/07/08 05:44:07;;;;;;;;;;;19.00;99.90;;;;;;5134879;28;19922;-71
2023/07/08 05:46:33;;;;;;;;;;;19.20;99.90;;;;;;5134883;28;19922;-73
2023/07/08 05:48:58;;;;;;;;;;;19.40;99.90;;;;;;5137019;27;20415;-71
2023/07/08 05:51:24;;;;;;;;;;;19.60;99.90;;;;;;5138993;27;19919;-73
2023/07/08 05:53:50;;;;;;;;;;;19.80;99.90;;;;;;5138620;27;19916;-74
2023/07/08 05:56:15;;;;;;;;;;;20.10;99.90;;;;;;5138594;27;19916;-74
2023/07/08 05:58:41;;;;;;;;;;;20.30;99.90;;;;;;5138605;27;20275;-72
2023/07/08 06:01:06;;;;;;;;;;;20.50;99.90;;;;;;5138935;27;19915;-73
2023/07/08 06:03:32;;;;;;;;;;;20.70;99.90;;;;;;5138775;27;20010;-71
2023/07/08 06:05:57;;;;;;;;;;;20.90;99.90;;;;;;5139855;27;20002;-72
2023/07/08 06:08:23;;;;;;;;;;;21.00;99.90;;;;;;5138598;27;20366;-71
2023/07/08 06:10:49;;;;;;;;;;;21.20;99.90;;;;;;5139382;27;20002;-75
2023/07/08 06:13:14;;;;;;;;;;;21.40;99.90;;;;;;5138375;27;19915;-73
2023/07/08 06:15:40;;;;;;;;;;;21.60;99.90;;;;;;5138457;27;19917;-72
2023/07/08 06:18:06;;;;;;;;;;;21.70;99.90;;;;;;5138342;27;19915;-71
2023/07/08 06:20:32;;;;;;;;;;;21.70;99.90;;;;;;5138532;27;20009;-72
2023/07/08 06:22:57;;;;;;;;;;;21.80;99.90;;;;;;5138235;27;19915;-80
2023/07/08 06:25:23;;;;;;;;;;;21.80;99.90;;;;;;5138184;27;20013;-71
2023/07/08 06:27:48;;;;;;;;;;;21.90;99.90;;;;;;5137810;27;19922;-72
2023/07/08 06:30:14;;;;;;;;;;;22.00;99.90;;;;;;5138065;27;19926;-72
2023/07/08 06:32:39;;;;;;;;;;;22.10;99.90;;;;;;5137706;27;20372;-72
2023/07/08 06:35:05;;;;;;;;;;;22.30;99.90;;;;;;5137846;27;19919;-71
2023/07/08 06:37:30;;;;;;;;;;;22.40;99.90;;;;;;5138006;27;19915;-77
2023/07/08 06:39:56;;;;;;;;;;;22.40;99.90;;;;;;5137489;27;19921;-74
2023/07/08 06:42:22;;;;;;;;;;;22.50;99.90;;;;;;5138027;27;19915;-71
2023/07/08 06:44:50;;;;;;;;;;;22.40;99.90;;;;;;5138182;27;19915;-70
2023/07/08 06:47:17;;;;;;;;;;;22.40;99.90;;;;;;5137703;27;19998;-73
2023/07/08 06:49:43;;;;;;;;;;;22.50;99.90;;;;;;5137889;27;19940;-72
2023/07/08 06:52:08;;;;;;;;;;;22.60;99.90;;;;;;5137573;27;20366;-73
2023/07/08 06:54:34;;;;;;;;;;;22.60;99.90;;;;;;5137609;27;19941;-71
2023/07/08 06:56:59;;;;;;;;;;;22.70;99.90;;;;;;5137359;27;19968;-71
2023/07/08 06:59:25;;;;;;;;;;;22.70;99.90;;;;;;5137035;27;20375;-71
2023/07/08 07:01:50;;;;;;;;;;;22.70;99.90;;;;;;5136369;27;19915;-71
2023/07/08 07:04:16;;;;;;;;;;;22.80;99.90;;;;;;5136859;27;20017;-71
2023/07/08 07:06:41;;;;;;;;;;;23.00;99.90;;;;;;5137343;27;19964;-71
2023/07/08 07:09:07;;;;;;;;;;;23.10;99.90;;;;;;5137188;27;20028;-70
2023/07/08 07:11:32;;;;;;;;;;;23.10;99.90;;;;;;5137186;27;19960;-72
2023/07/08 07:13:58;;;;;;;;;;;23.20;99.90;;;;;;5137112;27;19923;-72
2023/07/08 07:16:23;;;;;;;;;;;23.10;99.90;;;;;;5137140;27;19916;-71
2023/07/08 07:18:51;;;;;;;;;;;23.20;99.90;;;;;;5137421;27;19915;-72
2023/07/08 07:21:17;;;;;;;;;;;23.30;99.90;;;;;;5137108;27;19959;-72
2023/07/08 07:23:43;;;;;;;;;;;23.40;99.90;;;;;;5136924;27;19916;-72
2023/07/08 07:26:08;;;;;;;;;;;23.50;99.90;;;;;;5136869;27;19915;-73
2023/07/08 07:28:34;;;;;;;;;;;23.60;99.90;;;;;;5136846;27;19922;-71
2023/07/08 07:31:00;;;;;;;;;;;23.70;99.90;;;;;;5137185;27;19915;-73
2023/07/08 07:33:26;;;;;;;;;;;23.80;99.90;;;;;;5136306;27;19915;-71
2023/07/08 07:35:51;;;;;;;;;;;23.90;99.90;;;;;;5136809;27;20278;-71
2023/07/08 07:38:17;;;;;;;;;;;24.10;99.90;;;;;;5136562;27;19941;-72
2023/07/08 07:40:43;;;;;;;;;;;24.20;99.90;;;;;;5136498;27;19915;-72
2023/07/08 07:43:08;;;;;;;;;;;24.40;99.90;;;;;;5136513;27;19920;-72
2023/07/08 07:45:34;;;;;;;;;;;24.40;99.90;;;;;;5136873;27;19923;-73
2023/07/08 07:47:59;;;;;;;;;;;24.50;99.90;;;;;;5136440;27;20439;-71
2023/07/08 07:50:25;;;;;;;;;;;24.80;99.90;;;;;;5136750;27;19915;-73
2023/07/08 07:52:50;;;;;;;;;;;24.70;99.90;;;;;;5136437;27;19978;-72
2023/07/08 07:55:16;;;;;;;;;;;24.60;99.90;;;;;;5136357;27;20035;-72
2023/07/08 07:57:45;;;;;;;;;;;24.80;99.90;;;;;;5136158;27;19954;-73
2023/07/08 08:00:11;;;;;;;;;;;24.80;99.90;;;;;;5136167;27;20001;-73
2023/07/08 08:02:37;;;;;;;;;;;24.90;99.90;;;;;;5136467;27;19922;-71
2023/07/08 08:05:02;;;;;;;;;;;24.90;99.90;;;;;;5135893;27;19915;-73
2023/07/08 08:07:28;;;;;;;;;;;24.90;99.90;;;;;;5135781;27;20381;-73
2023/07/08 08:09:53;;;;;;;;;;;25.10;99.90;;;;;;5136140;27;19922;-71
2023/07/08 08:12:19;;;;;;;;;;;25.20;99.90;;;;;;5135208;27;20363;-73
2023/07/08 08:14:45;;;;;;;;;;;25.30;99.90;;;;;;5136195;27;20417;-72
2023/07/08 08:17:10;;;;;;;;;;;25.30;99.90;;;;;;5135756;27;20018;-72
2023/07/08 08:19:36;;;;;;;;;;;25.40;99.90;;;;;;5136145;27;20009;-72
2023/07/08 08:22:01;;;;;;;;;;;25.50;99.90;;;;;;5135909;27;19937;-72
2023/07/08 08:24:27;;;;;;;;;;;25.50;99.90;;;;;;5135815;27;20022;-73
2023/07/08 08:26:52;;;;;;;;;;;25.60;99.90;;;;;;5135685;27;19968;-71
2023/07/08 08:29:18;;;;;;;;;;;25.70;99.90;;;;;;5135737;27;19922;-71
2023/07/08 08:31:43;;;;;;;;;;;25.80;99.90;;;;;;5135701;27;20244;-72
2023/07/08 08:34:09;;;;;;;;;;;26.00;99.90;;;;;;5135589;27;20407;-71
2023/07/08 08:36:34;;;;;;;;;;;26.10;99.90;;;;;;5135791;27;19919;-71
2023/07/08 08:39:00;;;;;;;;;;;26.20;99.90;;;;;;5135573;27;19915;-71
2023/07/08 08:41:32;;;;;;;;;;;26.20;99.90;;;;;;5135449;27;19915;-74
2023/07/08 08:43:58;;;;;;;;;;;26.30;99.90;;;;;;5135400;27;19941;-71
2023/07/08 08:46:36;;;;;;;;;;;26.40;99.90;;;;;;5117483;27;19956;-72
2023/07/08 08:49:01;;;;;;;;;;;26.60;99.90;;;;;;5135601;27;19915;-72
2023/07/08 08:51:29;;;;;;;;;;;26.70;99.90;;;;;;5135299;27;19915;-71
2023/07/08 08:53:59;;;;;;;;;;;26.90;99.90;;;;;;5135202;27;20278;-72
2023/07/08 08:56:27;;;;;;;;;;;26.90;99.90;;;;;;5135259;27;19919;-72
2023/07/08 08:59:11;;;;;;;;;;;27.10;99.90;;;;;;5135238;27;19922;-71
2023/07/08 09:01:37;;;;;;;;;;;27.10;99.90;;;;;;5135514;27;19915;-71
2023/07/08 09:04:10;;;;;;;;;;;27.20;99.90;;;;;;5135123;27;19922;-73
2023/07/08 09:06:36;;;;;;;;;;;27.20;99.90;;;;;;5135067;27;19915;-72
2023/07/08 09:09:05;;;;;;;;;;;27.30;99.90;;;;;;5135114;28;19915;-74
2023/07/08 09:11:50;;;;;;;;;;;27.30;99.90;;;;;;5135180;28;19922;-71
2023/07/08 09:14:18;;;;;;;;;;;27.40;99.30;;;;;;5135004;28;19915;-71
2023/07/08 09:16:50;;;;;;;;;;;27.40;99.90;;;;;;5135076;28;19915;-72
2023/07/08 09:19:22;;;;;;;;;;;27.40;99.90;;;;;;5134781;28;20035;-72
2023/07/08 09:21:55;;;;;;;;;;;27.50;99.00;;;;;;5135649;27;20266;-72
2023/07/08 09:24:27;;;;;;;;;;;27.60;99.50;;;;;;5139357;27;19922;-73
2023/07/08 09:26:56;;;;;;;;;;;27.60;99.90;;;;;;5139490;27;19960;-72
2023/07/08 09:29:22;;;;;;;;;;;27.80;99.90;;;;;;5139199;27;19915;-73
2023/07/08 09:31:48;;;;;;;;;;;27.90;99.60;;;;;;5139213;27;19968;-72
2023/07/08 09:34:18;;;;;;;;;;;28.00;98.90;;;;;;5139096;27;20359;-72
2023/07/08 09:36:47;;;;;;;;;;;28.00;99.40;;;;;;5139090;27;19921;-72
2023/07/08 09:39:14;;;;;;;;;;;28.10;98.70;;;;;;5139030;27;19929;-70
2023/07/08 09:41:40;;;;;;;;;;;28.20;99.20;;;;;;5138612;27;19915;-73
2023/07/08 09:44:12;;;;;;;;;;;28.30;98.30;;;;;;5138921;27;20259;-71
2023/07/08 09:46:38;;;;;;;;;;;28.40;99.00;;;;;;5138759;27;19924;-71
2023/07/08 09:49:16;;;;;;;;;;;28.60;98.80;;;;;;5138877;27;19916;-73
2023/07/08 09:51:41;;;;;;;;;;;28.60;98.20;;;;;;5138944;27;19923;-71
2023/07/08 09:54:07;;;;;;;;;;;28.70;98.30;;;;;;5138847;27;19984;-71
2023/07/08 09:56:33;;;;;;;;;;;28.80;98.80;;;;;;5138736;27;19915;-71
2023/07/08 09:58:59;;;;;;;;;;;29.00;97.80;;;;;;5138577;27;19926;-72
2023/07/08 10:01:26;;;;;;;;;;;29.00;97.70;;;;;;5138622;27;20029;-71
2023/07/08 10:03:57;;;;;;;;;;;29.10;96.60;;;;;;5138408;27;20259;-71
2023/07/08 10:06:24;;;;;;;;;;;29.10;97.00;;;;;;5138610;27;19915;-71
2023/07/08 10:08:52;;;;;;;;;;;29.30;98.00;;;;;;5120141;27;19915;-72
2023/07/08 10:11:29;;;;;;;;;;;29.40;96.90;;;;;;5138028;27;19915;-72
2023/07/08 10:13:57;;;;;;;;;;;29.40;96.30;;;;;;5138248;27;20291;-72
2023/07/08 10:16:27;;;;;;;;;;;29.40;96.50;;;;;;5138726;27;20000;-73
2023/07/08 10:18:52;;;;;;;;;;;29.60;97.00;;;;;;5138731;27;20334;-71
2023/07/08 10:21:21;;;;;;;;;;;29.60;96.60;;;;;;5138216;27;19915;-73
2023/07/08 10:23:53;;;;;;;;;;;29.70;96.50;;;;;;5119825;27;20029;-73
2023/07/08 10:26:28;;;;;;;;;;;29.80;96.50;;;;;;5138123;27;19915;-72
2023/07/08 10:29:14;;;;;;;;;;;29.90;96.10;;;;;;5138081;27;20387;-72
2023/07/08 10:31:50;;;;;;;;;;;30.00;96.30;;;;;;5138006;27;19915;-71
2023/07/08 10:34:42;;;;;;;;;;;30.10;96.40;;;;;;5137140;27;20466;-73
2023/07/08 10:37:14;;;;;;;;;;;30.10;95.20;;;;;;5133845;27;19915;-72
2023/07/08 10:40:00;;;;;;;;;;;30.20;95.80;;;;;;5137893;27;19915;-71
2023/07/08 10:42:25;;;;;;;;;;;30.30;95.00;;;;;;5137974;27;19915;-72
2023/07/08 10:44:51;;;;;;;;;;;30.20;94.20;;;;;;5137694;27;20308;-72
2023/07/08 10:47:23;;;;;;;;;;;30.30;93.40;;;;;;5119422;27;19957;-72
2023/07/08 10:49:49;;;;;;;;;;;30.50;93.80;;;;;;5137707;27;19915;-72
2023/07/08 10:52:33;;;;;;;;;;;30.50;94.20;;;;;;5137562;27;19925;-71
2023/07/08 10:55:17;;;;;;;;;;;30.60;93.70;;;;;;5137514;27;19926;-71
2023/07/08 10:58:09;;;;;;;;;;;30.70;94.60;;;;;;5137494;27;19915;-72
2023/07/08 11:00:44;;;;;;;;;;;30.90;93.90;;;;;;5137915;27;19942;-72
2023/07/08 11:03:28;;;;;;;;;;;30.90;92.70;;;;;;5137599;27;20056;-72
2023/07/08 11:06:00;;;;;;;;;;;31.10;94.10;;;;;;5137955;27;20391;-71
2023/07/08 11:08:35;;;;;;;;;;;31.20;93.10;;;;;;5137366;27;19915;-71
2023/07/08 11:11:07;;;;;;;;;;;31.30;93.60;;;;;;5137236;27;20009;-71
2023/07/08 11:13:34;;;;;;;;;;;31.50;92.70;;;;;;5137105;27;19920;-72
2023/07/08 11:16:06;;;;;;;;;;;31.50;93.20;;;;;;5118453;27;20388;-71
2023/07/08 11:18:34;;;;;;;;;;;31.60;93.50;;;;;;5137163;27;19915;-72
2023/07/08 11:21:18;;;;;;;;;;;31.70;92.70;;;;;;5137002;27;19920;-72
2023/07/08 11:23:47;;;;;;;;;;;31.80;93.10;;;;;;5137189;27;19915;-72
2023/07/08 11:26:25;;;;;;;;;;;31.80;91.70;;;;;;5136948;27;19923;-72
2023/07/08 11:28:53;;;;;;;;;;;31.90;92.40;;;;;;5136843;27;20327;-72
2023/07/08 11:31:19;;;;;;;;;;;31.90;91.80;;;;;;5136832;27;19922;-73
2023/07/08 11:33:45;;;;;;;;;;;31.90;91.70;;;;;;5137215;27;19919;-72
2023/07/08 11:36:11;;;;;;;;;;;31.90;91.10;;;;;;5136790;27;19922;-72
2023/07/08 11:38:46;;;;;;;;;;;31.80;91.80;;;;;;5136457;27;20350;-72
2023/07/08 11:41:14;;;;;;;;;;;31.80;91.70;;;;;;5136361;27;20300;-73
2023/07/08 11:43:45;;;;;;;;;;;31.80;91.80;;;;;;5136233;27;19968;-81
2023/07/08 11:46:14;;;;;;;;;;;31.80;91.70;;;;;;5135655;27;19968;-74
2023/07/08 11:48:43;;;;;;;;;;;31.90;91.00;;;;;;5136451;27;19970;-75
2023/07/08 11:51:09;;;;;;;;;;;31.80;90.70;;;;;;5117958;27;20343;-75
2023/07/08 11:53:37;;;;;;;;;;;31.90;90.70;;;;;;5136150;27;19919;-74
2023/07/08 11:56:07;;;;;;;;;;;31.90;91.10;;;;;;5136170;27;19977;-74
2023/07/08 11:58:51;;;;;;;;;;;31.90;91.20;;;;;;5135076;27;20037;-74
2023/07/08 12:01:17;;;;;;;;;;;32.10;91.50;;;;;;5135823;27;19915;-74
2023/07/08 12:03:50;;;;;;;;;;;32.10;91.50;;;;;;5136020;27;19916;-73
2023/07/08 12:06:27;;;;;;;;;;;32.20;91.30;;;;;;5135497;27;19915;-74
2023/07/08 12:08:54;;;;;;;;;;;32.30;91.20;;;;;;5135705;27;19915;-73
2023/07/08 12:11:23;;;;;;;;;;;32.40;92.00;;;;;;5135479;27;19915;-75
2023/07/08 12:13:49;;;;;;;;;;;32.50;90.80;;;;;;5135097;27;20022;-74
2023/07/08 12:16:15;;;;;;;;;;;32.50;90.20;;;;;;5135354;27;20557;-74
2023/07/08 12:18:45;;;;;;;;;;;32.60;91.40;;;;;;5134789;27;19915;-74
2023/07/08 12:21:12;;;;;;;;;;;32.70;91.40;;;;;;5135904;27;19967;-74
2023/07/08 12:23:43;;;;;;;;;;;32.80;90.90;;;;;;5135503;27;19922;-74
2023/07/08 12:26:08;;;;;;;;;;;32.80;90.70;;;;;;5135810;27;19916;-75
2023/07/08 12:28:36;;;;;;;;;;;32.80;91.30;;;;;;5135977;27;20270;-75
2023/07/08 12:31:02;;;;;;;;;;;32.90;90.20;;;;;;5135722;27;19922;-75
2023/07/08 12:33:32;;;;;;;;;;;33.00;90.40;;;;;;5135541;27;19916;-75
2023/07/08 12:35:59;;;;;;;;;;;33.00;90.20;;;;;;5135727;27;19963;-74
2023/07/08 12:38:37;;;;;;;;;;;33.00;90.30;;;;;;5135671;27;19919;-74
2023/07/08 12:41:08;;;;;;;;;;;33.20;89.70;;;;;;5135580;27;19915;-74
2023/07/08 12:43:33;;;;;;;;;;;33.10;90.00;;;;;;5135513;27;19915;-75
2023/07/08 12:45:59;;;;;;;;;;;33.20;88.70;;;;;;5117145;27;19926;-75
2023/07/08 12:48:24;;;;;;;;;;;33.30;88.50;;;;;;5135567;27;19915;-74
2023/07/08 12:50:50;;;;;;;;;;;33.30;86.60;;;;;;5135390;27;20014;-76
2023/07/08 12:53:15;;;;;;;;;;;33.50;87.50;;;;;;5134991;27;19954;-70
2023/07/08 12:55:43;;;;;;;;;;;33.40;85.60;;;;;;5135019;27;19919;-71
2023/07/08 12:58:23;;;;;;;;;;;33.50;86.80;;;;;;5134976;27;19915;-71
2023/07/08 13:00:48;;;;;;;;;;;33.60;84.20;;;;;;5135213;27;20315;-71
2023/07/08 13:03:18;;;;;;;;;;;33.60;83.30;;;;;;5135224;27;19926;-71
2023/07/08 13:05:44;;;;;;;;;;;33.60;83.50;;;;;;5134909;27;20009;-73
2023/07/08 13:08:13;;;;;;;;;;;33.70;84.60;;;;;;5135633;27;20057;-72
2023/07/08 13:10:41;;;;;;;;;;;33.80;84.40;;;;;;5135104;27;19915;-73
2023/07/08 13:13:08;;;;;;;;;;;33.80;84.40;;;;;;5135037;28;19960;-75
2023/07/08 13:15:35;;;;;;;;;;;33.70;83.70;;;;;;5135109;28;19915;-72
2023/07/08 13:18:01;;;;;;;;;;;33.70;82.80;;;;;;5135015;28;19915;-73
2023/07/08 13:20:27;;;;;;;;;;;33.70;84.00;;;;;;5135078;28;20373;-72
2023/07/08 13:22:58;;;;;;;;;;;33.80;83.30;;;;;;5134846;28;19922;-72
2023/07/08 13:25:29;;;;;;;;;;;33.90;81.60;;;;;;5135087;28;20337;-73
2023/07/08 13:28:15;;;;;;;;;;;33.90;82.30;;;;;;5134768;28;19919;-73
2023/07/08 13:30:49;;;;;;;;;;;33.80;81.10;;;;;;5120525;28;19915;-72
2023/07/08 13:33:16;;;;;;;;;;;33.80;80.30;;;;;;5135223;28;19919;-72
2023/07/08 13:35:42;;;;;;;;;;;33.90;83.30;;;;;;5134631;28;19922;-73
2023/07/08 13:38:15;;;;;;;;;;;34.00;81.50;;;;;;5134858;28;19915;-72
2023/07/08 13:40:43;;;;;;;;;;;34.00;81.90;;;;;;5134884;28;19926;-71
2023/07/08 13:43:08;;;;;;;;;;;34.00;81.70;;;;;;5135002;28;19915;-74
2023/07/08 13:45:34;;;;;;;;;;;34.10;79.50;;;;;;5134889;28;20355;-72
2023/07/08 13:48:06;;;;;;;;;;;34.10;80.90;;;;;;5134643;28;20335;-74
2023/07/08 13:50:39;;;;;;;;;;;33.90;79.80;;;;;;5134787;28;19923;-74
2023/07/08 13:53:15;;;;;;;;;;;34.10;81.00;;;;;;5135071;28;20006;-74
2023/07/08 13:55:40;;;;;;;;;;;34.20;81.40;;;;;;5134814;28;19916;-74
2023/07/08 13:58:10;;;;;;;;;;;34.30;81.10;;;;;;5135072;28;19939;-75
2023/07/08 14:00:36;;;;;;;;;;;34.10;80.30;;;;;;5134715;28;19915;-75
2023/07/08 14:03:01;;;;;;;;;;;34.10;81.60;;;;;;5134814;28;19968;-73
2023/07/08 14:05:27;;;;;;;;;;;34.10;80.60;;;;;;5135379;28;19919;-72
2023/07/08 14:07:52;;;;;;;;;;;34.20;81.00;;;;;;5134503;27;19915;-71
2023/07/08 14:10:18;;;;;;;;;;;34.20;80.00;;;;;;5137244;27;19915;-73
2023/07/08 14:12:43;;;;;;;;;;;34.30;80.90;;;;;;5138363;27;20081;-73
2023/07/08 14:15:09;;;;;;;;;;;34.20;79.10;;;;;;5138187;27;19921;-73
2023/07/08 14:17:37;;;;;;;;;;;34.20;79.90;;;;;;5120058;27;20068;-73
2023/07/08 14:20:08;;;;;;;;;;;34.20;78.90;;;;;;5138165;27;19919;-74